createdAt,value
2022-08-17T00:01:18.454Z,100.00
2022-08-17T00:03:49.265Z,100.00
2022-08-17T00:06:25.999Z,100.00
2022-08-17T00:08:53.564Z,100.00
2022-08-17T00:11:22.054Z,100.00
2022-08-17T00:13:49.820Z,100.00
2022-08-17T00:16:18.559Z,100.00
2022-08-17T00:19:06.311Z,100.00
2022-08-17T00:21:56.417Z,100.00
2022-08-17T00:24:19.208Z,100.00
2022-08-17T00:26:45.753Z,100.00
2022-08-17T00:29:19.385Z,100.00
2022-08-17T00:31:46.505Z,100.00
2022-08-17T00:34:12.872Z,100.00
2022-08-17T00:36:39.222Z,100.00
2022-08-17T00:39:05.584Z,100.00
2022-08-17T00:41:31.921Z,100.00
2022-08-17T00:44:00.448Z,100.00
2022-08-17T00:46:28.619Z,100.00
2022-08-17T00:48:55.176Z,100.00
2022-08-17T00:51:34.226Z,100.00
2022-08-17T00:54:11.838Z,100.00
2022-08-17T00:56:40.490Z,100.00
2022-08-17T00:59:06.847Z,100.00
2022-08-17T01:01:33.372Z,100.00
2022-08-17T01:04:00.271Z,100.00
2022-08-17T01:06:27.064Z,100.00
2022-08-17T01:08:57.639Z,100.00
2022-08-17T01:11:24.422Z,100.00
2022-08-17T01:13:50.723Z,100.00
2022-08-17T01:16:19.463Z,100.00
2022-08-17T01:18:47.208Z,100.00
2022-08-17T01:21:22.728Z,100.00
2022-08-17T01:23:49.166Z,100.00
2022-08-17T01:26:15.505Z,100.00
2022-08-17T01:28:54.560Z,100.00
2022-08-17T01:31:21.965Z,100.00
2022-08-17T01:33:48.300Z,100.00
2022-08-17T01:36:14.628Z,100.00
2022-08-17T01:38:40.969Z,100.00
2022-08-17T01:41:10.539Z,100.00
2022-08-17T01:43:43.118Z,100.00
2022-08-17T01:46:12.746Z,100.00
2022-08-17T01:48:39.177Z,100.00
2022-08-17T01:51:05.901Z,100.00
2022-08-17T01:53:34.137Z,100.00
2022-08-17T01:56:03.043Z,100.00
2022-08-17T01:58:29.441Z,100.00
2022-08-17T02:00:59.893Z,100.00
2022-08-17T02:03:28.193Z,100.00
2022-08-17T02:05:54.630Z,100.00
2022-08-17T02:08:21.266Z,100.00
2022-08-17T02:11:11.254Z,100.00
2022-08-17T02:13:38.256Z,100.00
2022-08-17T02:16:04.605Z,100.00
2022-08-17T02:18:30.962Z,100.00
2022-08-17T02:20:57.372Z,100.00
2022-08-17T02:23:24.199Z,100.00
2022-08-17T02:25:50.606Z,100.00
2022-08-17T02:28:17.417Z,100.00
2022-08-17T02:31:02.690Z,100.00
2022-08-17T02:33:43.162Z,100.00
2022-08-17T02:36:11.217Z,100.00
2022-08-17T02:38:37.939Z,100.00
2022-08-17T02:41:04.536Z,100.00
2022-08-17T02:43:31.179Z,100.00
2022-08-17T02:45:57.608Z,100.00
2022-08-17T02:48:30.884Z,100.00
2022-08-17T02:50:58.163Z,100.00
2022-08-17T02:53:24.503Z,100.00
2022-08-17T02:55:52.425Z,100.00
2022-08-17T02:58:29.567Z,100.00
2022-08-17T03:01:03.171Z,100.00
2022-08-17T03:03:29.537Z,100.00
2022-08-17T03:05:55.879Z,100.00
2022-08-17T03:08:23.202Z,100.00
2022-08-17T03:10:50.558Z,100.00
2022-08-17T03:13:17.257Z,100.00
2022-08-17T03:15:47.137Z,100.00
2022-08-17T03:18:21.934Z,100.00
2022-08-17T03:20:52.943Z,100.00
2022-08-17T03:23:24.143Z,100.00
2022-08-17T03:25:53.408Z,100.00
2022-08-17T03:28:20.095Z,100.00
2022-08-17T03:30:46.470Z,100.00
2022-08-17T03:33:12.784Z,100.00
2022-08-17T03:35:40.300Z,100.00
2022-08-17T03:38:07.384Z,100.00
2022-08-17T03:40:55.482Z,100.00
2022-08-17T03:43:20.867Z,100.00
2022-08-17T03:46:28.837Z,100.00
2022-08-17T03:49:19.980Z,100.00
2022-08-17T03:52:05.084Z,100.00
2022-08-17T03:54:50.169Z,100.00
2022-08-17T03:57:16.613Z,100.00
2022-08-17T03:59:43.024Z,100.00
2022-08-17T04:02:12.437Z,100.00
2022-08-17T04:04:38.994Z,100.00
2022-08-17T04:07:05.462Z,100.00
2022-08-17T04:09:31.798Z,100.00
2022-08-17T04:12:02.443Z,100.00
2022-08-17T04:14:36.147Z,100.00
2022-08-17T04:17:19.491Z,100.00
2022-08-17T04:19:46.443Z,100.00
2022-08-17T04:22:30.508Z,100.00
2022-08-17T04:24:59.312Z,100.00
2022-08-17T04:27:25.638Z,100.00
2022-08-17T04:29:54.763Z,100.00
2022-08-17T04:33:03.925Z,100.00
2022-08-17T04:35:09.299Z,100.00
2022-08-17T04:37:35.660Z,100.00
2022-08-17T04:40:20.727Z,100.00
2022-08-17T04:43:00.119Z,100.00
2022-08-17T04:45:27.448Z,100.00
2022-08-17T04:47:59.006Z,100.00
2022-08-17T04:50:25.366Z,100.00
2022-08-17T04:52:51.847Z,100.00
2022-08-17T04:55:18.343Z,100.00
2022-08-17T04:57:45.243Z,100.00
2022-08-17T05:00:11.863Z,100.00
2022-08-17T05:02:50.126Z,100.00
2022-08-17T05:05:20.776Z,100.00
2022-08-17T05:07:47.294Z,100.00
2022-08-17T05:10:13.735Z,100.00
2022-08-17T05:12:40.058Z,100.00
2022-08-17T05:15:10.139Z,100.00
2022-08-17T05:17:36.527Z,100.00
2022-08-17T05:20:02.972Z,100.00
2022-08-17T05:22:29.433Z,100.00
2022-08-17T05:24:55.812Z,100.00
2022-08-17T05:27:22.715Z,100.00
2022-08-17T05:29:49.951Z,100.00
2022-08-17T05:32:38.770Z,100.00
2022-08-17T05:35:02.786Z,100.00
2022-08-17T05:37:29.165Z,100.00
2022-08-17T05:40:03.120Z,100.00
2022-08-17T05:42:29.501Z,100.00
2022-08-17T05:44:57.135Z,100.00
2022-08-17T05:47:23.453Z,100.00
2022-08-17T05:49:49.865Z,100.00
2022-08-17T05:52:25.555Z,100.00
2022-08-17T05:55:11.300Z,100.00
2022-08-17T05:57:53.006Z,100.00
2022-08-17T06:00:30.304Z,100.00
2022-08-17T06:03:03.482Z,100.00
2022-08-17T06:05:39.026Z,100.00
2022-08-17T06:08:14.586Z,100.00
2022-08-17T06:10:50.452Z,100.00
2022-08-17T06:13:27.698Z,100.00
2022-08-17T06:16:33.721Z,100.00
2022-08-17T06:19:18.583Z,100.00
2022-08-17T06:21:47.123Z,100.00
2022-08-17T06:24:19.726Z,100.00
2022-08-17T06:26:46.061Z,100.00
2022-08-17T06:29:19.472Z,100.00
2022-08-17T06:31:45.934Z,100.00
2022-08-17T06:34:12.298Z,100.00
2022-08-17T06:36:43.016Z,100.00
2022-08-17T06:39:09.329Z,100.00
2022-08-17T06:41:54.563Z,100.00
2022-08-17T06:44:43.573Z,100.00
2022-08-17T06:47:13.546Z,100.00
2022-08-17T06:49:42.523Z,100.00
2022-08-17T06:52:45.932Z,100.00
2022-08-17T06:55:05.145Z,100.00
2022-08-17T06:57:32.661Z,100.00
2022-08-17T07:00:07.920Z,100.00
2022-08-17T07:02:52.756Z,100.00
2022-08-17T07:05:21.039Z,100.00
2022-08-17T07:08:02.655Z,100.00
2022-08-17T07:10:30.695Z,100.00
2022-08-17T07:12:58.509Z,100.00
2022-08-17T07:15:34.010Z,100.00
2022-08-17T07:18:00.688Z,100.00
2022-08-17T07:20:27.124Z,100.00
2022-08-17T07:22:59.734Z,100.00
2022-08-17T07:25:27.437Z,100.00
2022-08-17T07:27:54.750Z,98.22
2022-08-17T07:30:21.103Z,97.19
2022-08-17T07:32:50.806Z,96.14
2022-08-17T07:35:37.783Z,96.19
2022-08-17T07:38:07.716Z,99.49
2022-08-17T07:41:02.314Z,94.62
2022-08-17T07:43:41.178Z,92.77
2022-08-17T07:46:35.421Z,93.95
2022-08-17T07:49:07.357Z,94.35
2022-08-17T07:51:33.809Z,90.04
2022-08-17T07:54:14.085Z,90.74
2022-08-17T07:56:41.107Z,90.83
2022-08-17T07:59:07.601Z,90.24
2022-08-17T08:01:39.673Z,88.67
2022-08-17T08:04:49.697Z,85.93
2022-08-17T08:07:14.119Z,87.58
2022-08-17T08:09:44.787Z,87.14
2022-08-17T08:12:33.467Z,85.11
2022-08-17T08:15:03.782Z,84.68
2022-08-17T08:17:36.402Z,84.95
2022-08-17T08:20:37.782Z,84.42
2022-08-17T08:23:18.533Z,81.82
2022-08-17T08:25:53.618Z,77.77
2022-08-17T08:28:28.977Z,77.39
2022-08-17T08:30:58.592Z,76.58
2022-08-17T08:33:39.319Z,81.34
2022-08-17T08:36:58.145Z,78.63
2022-08-17T08:39:41.239Z,82.74
2022-08-17T08:42:15.711Z,85.06
2022-08-17T08:45:00.471Z,82.59
2022-08-17T08:47:51.863Z,84.87
2022-08-17T08:50:37.852Z,90.19
2022-08-17T08:53:14.257Z,86.13
2022-08-17T08:55:59.188Z,76.36
2022-08-17T08:58:31.617Z,81.60
2022-08-17T09:01:17.103Z,72.70
2022-08-17T09:03:53.221Z,74.70
2022-08-17T09:06:38.883Z,68.72
2022-08-17T09:09:06.389Z,71.93
2022-08-17T09:11:35.697Z,74.70
2022-08-17T09:14:28.260Z,74.60
2022-08-17T09:16:55.265Z,76.98
2022-08-17T09:19:23.224Z,80.02
2022-08-17T09:21:52.523Z,87.92
2022-08-17T09:24:20.694Z,94.88
2022-08-17T09:26:59.376Z,94.90
2022-08-17T09:29:26.948Z,91.58
2022-08-17T09:31:55.159Z,97.30
2022-08-17T09:34:40.062Z,92.43
2022-08-17T09:37:19.200Z,92.80
2022-08-17T09:39:48.507Z,92.66
2022-08-17T09:42:18.827Z,90.64
2022-08-17T09:45:20.037Z,90.37
2022-08-17T09:47:48.364Z,91.94
2022-08-17T09:51:04.959Z,96.49
2022-08-17T09:53:07.758Z,96.99
2022-08-17T09:55:46.311Z,92.98
2022-08-17T09:58:12.629Z,91.07
2022-08-17T10:00:40.197Z,96.05
2022-08-17T10:03:08.337Z,88.85
2022-08-17T10:05:40.589Z,87.65
2022-08-17T10:08:15.030Z,87.97
2022-08-17T10:10:52.458Z,91.76
2022-08-17T10:13:53.725Z,90.30
2022-08-17T10:16:26.070Z,92.71
2022-08-17T10:19:22.052Z,90.61
2022-08-17T10:22:14.962Z,92.64
2022-08-17T10:25:22.501Z,95.78
2022-08-17T10:28:19.678Z,89.29
2022-08-17T10:30:48.296Z,84.02
2022-08-17T10:33:15.751Z,87.68
2022-08-17T10:35:42.045Z,90.35
2022-08-17T10:38:21.550Z,93.12
2022-08-17T10:41:03.293Z,100.00
2022-08-17T10:43:29.797Z,96.11
2022-08-17T10:46:31.198Z,96.34
2022-08-17T10:49:13.388Z,100.00
2022-08-17T10:51:40.550Z,100.00
2022-08-17T10:54:07.455Z,96.02
2022-08-17T10:56:41.901Z,99.50
2022-08-17T10:59:08.334Z,100.00
2022-08-17T11:01:43.790Z,100.00
2022-08-17T11:04:36.395Z,100.00
2022-08-17T11:07:03.034Z,100.00
2022-08-17T11:09:47.904Z,100.00
2022-08-17T11:12:17.216Z,100.00
2022-08-17T11:15:02.808Z,100.00
2022-08-17T11:17:42.290Z,100.00
2022-08-17T11:20:08.654Z,100.00
2022-08-17T11:22:35.078Z,100.00
2022-08-17T11:25:13.869Z,100.00
2022-08-17T11:27:40.331Z,100.00
2022-08-17T11:30:14.829Z,100.00
2022-08-17T11:32:54.460Z,100.00
2022-08-17T11:35:21.391Z,100.00
2022-08-17T11:37:47.715Z,100.00
2022-08-17T11:40:14.146Z,100.00
2022-08-17T11:42:43.416Z,100.00
2022-08-17T11:45:19.543Z,100.00
2022-08-17T11:48:28.411Z,100.00
2022-08-17T11:51:17.463Z,100.00
2022-08-17T11:53:43.850Z,100.00
2022-08-17T11:56:11.520Z,100.00
2022-08-17T11:58:37.856Z,100.00
2022-08-17T12:01:13.437Z,100.00
2022-08-17T12:03:42.359Z,100.00
2022-08-17T12:06:30.206Z,100.00
2022-08-17T12:09:14.515Z,100.00
2022-08-17T12:11:55.623Z,100.00
2022-08-17T12:14:51.702Z,100.00
2022-08-17T12:17:39.147Z,100.00
2022-08-17T12:20:13.425Z,100.00
2022-08-17T12:23:04.014Z,100.00
2022-08-17T12:25:42.602Z,100.00
2022-08-17T12:28:21.503Z,100.00
2022-08-17T12:30:49.097Z,100.00
2022-08-17T12:33:25.437Z,100.00
2022-08-17T12:36:05.657Z,100.00
2022-08-17T12:38:36.462Z,100.00
2022-08-17T12:41:23.845Z,100.00
2022-08-17T12:44:03.214Z,100.00
2022-08-17T12:46:33.333Z,100.00
2022-08-17T12:49:16.159Z,100.00
2022-08-17T12:51:43.798Z,100.00
2022-08-17T12:54:16.233Z,100.00
2022-08-17T12:56:44.985Z,100.00
2022-08-17T12:59:14.137Z,100.00
2022-08-17T13:01:55.198Z,100.00
2022-08-17T13:04:24.075Z,100.00
2022-08-17T13:06:58.168Z,100.00
2022-08-17T13:09:35.431Z,100.00
2022-08-17T13:12:06.819Z,100.00
2022-08-17T13:14:34.069Z,100.00
2022-08-17T13:17:15.287Z,100.00
2022-08-17T13:19:47.971Z,100.00
2022-08-17T13:22:14.290Z,100.00
2022-08-17T13:24:40.695Z,100.00
2022-08-17T13:27:08.784Z,100.00
2022-08-17T13:29:44.375Z,100.00
2022-08-17T13:32:13.401Z,100.00
2022-08-17T13:35:11.823Z,100.00
2022-08-17T13:37:35.158Z,100.00
2022-08-17T13:40:10.586Z,100.00
2022-08-17T13:42:50.570Z,100.00
2022-08-17T13:45:34.884Z,100.00
2022-08-17T13:48:06.277Z,100.00
2022-08-17T13:50:32.734Z,100.00
2022-08-17T13:52:59.054Z,100.00
2022-08-17T13:55:25.513Z,100.00
2022-08-17T13:58:03.904Z,100.00
2022-08-17T14:00:35.310Z,100.00
2022-08-17T14:03:27.865Z,100.00
2022-08-17T14:05:54.241Z,100.00
2022-08-17T14:08:22.176Z,100.00
2022-08-17T14:10:58.216Z,100.00
2022-08-17T14:13:24.584Z,100.00
2022-08-17T14:15:54.583Z,100.00
2022-08-17T14:18:42.042Z,100.00
2022-08-17T14:21:09.268Z,100.00
2022-08-17T14:23:35.842Z,100.00
2022-08-17T14:26:02.155Z,100.00
2022-08-17T14:28:28.566Z,100.00
2022-08-17T14:30:55.453Z,100.00
2022-08-17T14:33:22.645Z,100.00
2022-08-17T14:35:53.401Z,100.00
2022-08-17T14:38:20.067Z,100.00
2022-08-17T14:40:46.859Z,100.00
2022-08-17T14:43:13.218Z,100.00
2022-08-17T14:45:39.585Z,100.00
2022-08-17T14:48:07.687Z,100.00
2022-08-17T14:50:35.407Z,100.00
2022-08-17T14:53:03.745Z,100.00
2022-08-17T14:55:31.065Z,100.00
2022-08-17T14:57:57.493Z,100.00
2022-08-17T15:00:23.919Z,100.00
2022-08-17T15:02:54.190Z,100.00
2022-08-17T15:05:22.036Z,100.00
2022-08-17T15:07:48.452Z,100.00
2022-08-17T15:10:15.000Z,100.00
2022-08-17T15:12:44.482Z,86.92
2022-08-17T15:15:12.866Z,83.44
2022-08-17T15:17:54.960Z,87.88
2022-08-17T15:20:27.651Z,98.66
2022-08-17T15:22:55.457Z,100.00
2022-08-17T15:25:22.327Z,100.00
2022-08-17T15:27:48.743Z,94.12
2022-08-17T15:30:15.455Z,91.53
2022-08-17T15:32:50.938Z,92.53
2022-08-17T15:35:22.084Z,93.49
2022-08-17T15:37:53.993Z,98.23
2022-08-17T15:40:20.352Z,100.00
2022-08-17T15:42:46.720Z,100.00
2022-08-17T15:45:13.577Z,100.00
2022-08-17T15:47:40.058Z,100.00
2022-08-17T15:50:07.054Z,100.00
2022-08-17T15:52:37.907Z,100.00
2022-08-17T15:55:04.935Z,100.00
2022-08-17T15:57:31.315Z,98.53
2022-08-17T15:59:58.988Z,100.00
2022-08-17T16:03:44.960Z,100.00
2022-08-17T16:05:24.823Z,100.00
2022-08-17T16:07:52.085Z,100.00
2022-08-17T16:10:19.418Z,100.00
2022-08-17T16:12:46.486Z,97.65
2022-08-17T16:15:13.665Z,100.00
2022-08-17T16:17:41.443Z,100.00
2022-08-17T16:20:08.952Z,100.00
2022-08-17T16:22:36.352Z,98.03
2022-08-17T16:25:05.359Z,99.00
2022-08-17T16:27:31.687Z,100.00
2022-08-17T16:29:58.158Z,100.00
2022-08-17T16:32:31.909Z,100.00
2022-08-17T16:35:03.735Z,100.00
2022-08-17T16:37:30.834Z,100.00
2022-08-17T16:40:00.625Z,100.00
2022-08-17T16:42:28.870Z,100.00
2022-08-17T16:44:56.851Z,100.00
2022-08-17T16:47:23.279Z,100.00
2022-08-17T16:49:50.077Z,100.00
2022-08-17T16:52:32.433Z,100.00
2022-08-17T16:55:00.204Z,100.00
2022-08-17T16:57:26.624Z,100.00
2022-08-17T16:59:53.442Z,100.00
2022-08-17T17:02:31.211Z,100.00
2022-08-17T17:05:03.679Z,100.00
2022-08-17T17:07:37.858Z,100.00
2022-08-17T17:10:14.989Z,100.00
2022-08-17T17:13:01.147Z,100.00
2022-08-17T17:15:28.866Z,100.00
2022-08-17T17:18:07.148Z,100.00
2022-08-17T17:20:45.815Z,100.00
2022-08-17T17:23:26.271Z,100.00
2022-08-17T17:25:55.959Z,100.00
2022-08-17T17:28:43.226Z,100.00
2022-08-17T17:31:17.412Z,100.00
2022-08-17T17:33:48.196Z,100.00
2022-08-17T17:36:34.775Z,100.00
2022-08-17T17:39:05.677Z,100.00
2022-08-17T17:41:49.455Z,100.00
2022-08-17T17:44:18.018Z,100.00
2022-08-17T17:46:51.227Z,100.00
2022-08-17T17:49:18.221Z,100.00
2022-08-17T17:52:06.505Z,100.00
2022-08-17T17:54:56.276Z,100.00
2022-08-17T17:57:24.526Z,100.00
2022-08-17T18:00:09.765Z,100.00
2022-08-17T18:02:52.124Z,100.00
2022-08-17T18:05:22.228Z,100.00
2022-08-17T18:07:52.406Z,100.00
2022-08-17T18:10:50.610Z,100.00
2022-08-17T18:13:26.671Z,100.00
2022-08-17T18:15:54.393Z,100.00
2022-08-17T18:18:40.156Z,100.00
2022-08-17T18:21:16.842Z,100.00
2022-08-17T18:23:59.704Z,100.00
2022-08-17T18:26:36.451Z,100.00
2022-08-17T18:29:21.074Z,100.00
2022-08-17T18:31:47.822Z,100.00
2022-08-17T18:34:43.734Z,100.00
2022-08-17T18:37:07.890Z,100.00
2022-08-17T18:39:35.263Z,100.00
2022-08-17T18:42:03.717Z,100.00
2022-08-17T18:44:32.771Z,100.00
2022-08-17T18:47:26.633Z,100.00
2022-08-17T18:49:57.385Z,100.00
2022-08-17T18:52:28.253Z,100.00
2022-08-17T18:55:13.797Z,100.00
2022-08-17T18:57:40.128Z,100.00
2022-08-17T19:00:26.743Z,100.00
2022-08-17T19:02:55.097Z,100.00
2022-08-17T19:05:31.134Z,100.00
2022-08-17T19:08:14.084Z,100.00
2022-08-17T19:10:47.002Z,100.00
2022-08-17T19:13:24.345Z,100.00
2022-08-17T19:16:11.727Z,100.00
2022-08-17T19:18:52.490Z,100.00
2022-08-17T19:21:23.404Z,100.00
2022-08-17T19:23:55.447Z,100.00
2022-08-17T19:26:51.359Z,100.00
2022-08-17T19:29:22.214Z,100.00
2022-08-17T19:31:49.210Z,100.00
2022-08-17T19:34:33.543Z,100.00
2022-08-17T19:37:12.787Z,100.00
2022-08-17T19:39:50.984Z,100.00
2022-08-17T19:42:37.130Z,100.00
2022-08-17T19:45:15.746Z,100.00
2022-08-17T19:48:03.325Z,100.00
2022-08-17T19:50:49.521Z,100.00
2022-08-17T19:53:18.643Z,100.00
2022-08-17T19:56:04.885Z,100.00
2022-08-17T19:58:48.185Z,100.00
2022-08-17T20:01:17.879Z,100.00
2022-08-17T20:03:48.606Z,100.00
2022-08-17T20:06:15.216Z,100.00
2022-08-17T20:08:55.891Z,100.00
2022-08-17T20:11:24.900Z,100.00
2022-08-17T20:14:06.774Z,100.00
2022-08-17T20:16:36.314Z,100.00
2022-08-17T20:19:05.420Z,100.00
2022-08-17T20:21:53.966Z,100.00
2022-08-17T20:24:21.277Z,100.00
2022-08-17T20:26:58.349Z,100.00
2022-08-17T20:29:40.286Z,100.00
2022-08-17T20:32:15.085Z,100.00
2022-08-17T20:34:55.505Z,100.00
2022-08-17T20:37:21.850Z,100.00
2022-08-17T20:39:52.777Z,100.00
2022-08-17T20:42:22.237Z,100.00
2022-08-17T20:44:49.687Z,100.00
2022-08-17T20:47:23.796Z,100.00
2022-08-17T20:49:53.532Z,100.00
2022-08-17T20:52:38.862Z,100.00
2022-08-17T20:55:09.492Z,100.00
2022-08-17T20:57:35.891Z,100.00
2022-08-17T21:00:20.997Z,100.00
2022-08-17T21:02:55.690Z,100.00
2022-08-17T21:05:30.053Z,100.00
2022-08-17T21:07:58.103Z,100.00
2022-08-17T21:10:24.858Z,100.00
2022-08-17T21:12:51.426Z,100.00
2022-08-17T21:15:38.165Z,100.00
2022-08-17T21:18:23.547Z,100.00
2022-08-17T21:21:02.462Z,100.00
2022-08-17T21:23:28.819Z,100.00
2022-08-17T21:26:04.317Z,100.00
2022-08-17T21:28:34.581Z,100.00
2022-08-17T21:31:08.391Z,100.00
2022-08-17T21:33:39.495Z,100.00
2022-08-17T21:36:11.918Z,100.00
2022-08-17T21:45:27.359Z,100.00
2022-08-17T21:48:25.745Z,100.00
2022-08-17T21:51:12.789Z,100.00
2022-08-17T21:53:41.707Z,100.00
2022-08-17T21:56:08.456Z,100.00
2022-08-17T21:58:36.457Z,100.00
2022-08-17T22:01:13.240Z,100.00
2022-08-17T22:03:39.929Z,100.00
2022-08-17T22:06:19.143Z,100.00
2022-08-17T22:08:56.967Z,100.00
2022-08-17T22:11:23.333Z,100.00
2022-08-17T22:14:02.272Z,100.00
2022-08-17T22:16:32.048Z,100.00
2022-08-17T22:18:58.532Z,100.00
2022-08-17T22:21:25.392Z,100.00
2022-08-17T22:24:05.123Z,100.00
2022-08-17T22:26:50.327Z,100.00
2022-08-17T22:29:35.457Z,100.00
2022-08-17T22:32:01.873Z,100.00
2022-08-17T22:34:28.234Z,100.00
2022-08-17T22:37:13.575Z,100.00
2022-08-17T22:39:40.374Z,100.00
2022-08-17T22:42:08.347Z,100.00
2022-08-17T22:44:44.286Z,100.00
2022-08-17T22:47:13.677Z,100.00
2022-08-17T22:49:54.242Z,100.00
2022-08-17T22:52:29.961Z,100.00
2022-08-17T22:55:20.571Z,100.00
2022-08-17T22:58:06.163Z,100.00
2022-08-17T23:00:43.085Z,100.00
2022-08-17T23:03:09.542Z,100.00
2022-08-17T23:05:36.610Z,100.00
2022-08-17T23:08:03.577Z,100.00
2022-08-17T23:10:31.260Z,100.00
2022-08-17T23:12:59.677Z,100.00
2022-08-17T23:15:30.528Z,100.00
2022-08-17T23:17:56.962Z,100.00
2022-08-17T23:20:23.463Z,100.00
2022-08-17T23:22:53.160Z,100.00
2022-08-17T23:25:28.012Z,100.00
2022-08-17T23:27:54.988Z,100.00
2022-08-17T23:30:25.569Z,100.00
2022-08-17T23:32:53.771Z,100.00
2022-08-17T23:35:20.329Z,100.00
2022-08-17T23:38:07.538Z,100.00
2022-08-17T23:40:33.954Z,100.00
2022-08-17T23:43:00.332Z,100.00
2022-08-17T23:45:30.976Z,100.00
2022-08-17T23:47:57.521Z,100.00
2022-08-17T23:50:24.914Z,100.00
2022-08-17T23:52:56.263Z,100.00
2022-08-17T23:55:25.806Z,100.00
2022-08-17T23:57:52.326Z,100.00
